sensor_id;sensor_type;location;lat;lon;timestamp;P1;durP1;ratioP1;P2;durP2;ratioP2
69890;SDS011;57170;43.964;21.262;2022-08-19T00:00:17;16.27;;;9.73;;
69890;SDS011;57170;43.964;21.262;2022-08-19T00:02:44;13.07;;;9.45;;
69890;SDS011;57170;43.964;21.262;2022-08-19T00:05:12;11.02;;;9.00;;
69890;SDS011;57170;43.964;21.262;2022-08-19T00:07:38;11.50;;;9.32;;
69890;SDS011;57170;43.964;21.262;2022-08-19T00:10:05;10.35;;;9.05;;
69890;SDS011;57170;43.964;21.262;2022-08-19T00:12:31;9.05;;;8.13;;
69890;SDS011;57170;43.964;21.262;2022-08-19T00:14:58;11.07;;;8.82;;
69890;SDS011;57170;43.964;21.262;2022-08-19T00:17:24;10.20;;;8.45;;
69890;SDS011;57170;43.964;21.262;2022-08-19T00:19:50;10.13;;;8.45;;
69890;SDS011;57170;43.964;21.262;2022-08-19T00:22:16;9.13;;;7.75;;
69890;SDS011;57170;43.964;21.262;2022-08-19T00:24:46;9.35;;;8.18;;
69890;SDS011;57170;43.964;21.262;2022-08-19T00:27:12;11.02;;;8.45;;
69890;SDS011;57170;43.964;21.262;2022-08-19T00:29:38;9.88;;;7.32;;
69890;SDS011;57170;43.964;21.262;2022-08-19T00:32:04;9.88;;;8.52;;
69890;SDS011;57170;43.964;21.262;2022-08-19T00:34:31;13.00;;;9.45;;
69890;SDS011;57170;43.964;21.262;2022-08-19T00:36:58;11.43;;;9.30;;
69890;SDS011;57170;43.964;21.262;2022-08-19T00:39:25;11.15;;;8.98;;
69890;SDS011;57170;43.964;21.262;2022-08-19T00:41:51;10.98;;;9.10;;
69890;SDS011;57170;43.964;21.262;2022-08-19T00:44:22;11.85;;;9.48;;
69890;SDS011;57170;43.964;21.262;2022-08-19T00:46:49;11.23;;;9.27;;
69890;SDS011;57170;43.964;21.262;2022-08-19T00:49:29;11.52;;;8.60;;
69890;SDS011;57170;43.964;21.262;2022-08-19T00:52:08;13.93;;;9.10;;
69890;SDS011;57170;43.964;21.262;2022-08-19T00:54:35;13.80;;;9.45;;
69890;SDS011;57170;43.964;21.262;2022-08-19T00:57:02;13.27;;;9.77;;
69890;SDS011;57170;43.964;21.262;2022-08-19T00:59:31;20.98;;;11.05;;
69890;SDS011;57170;43.964;21.262;2022-08-19T01:01:57;13.95;;;10.65;;
69890;SDS011;57170;43.964;21.262;2022-08-19T01:04:23;9.93;;;8.90;;
69890;SDS011;57170;43.964;21.262;2022-08-19T01:06:49;11.75;;;9.90;;
69890;SDS011;57170;43.964;21.262;2022-08-19T01:09:15;13.32;;;10.00;;
69890;SDS011;57170;43.964;21.262;2022-08-19T01:11:41;12.90;;;9.63;;
69890;SDS011;57170;43.964;21.262;2022-08-19T01:14:09;10.25;;;9.07;;
69890;SDS011;57170;43.964;21.262;2022-08-19T01:16:36;12.95;;;10.07;;
69890;SDS011;57170;43.964;21.262;2022-08-19T01:19:03;11.05;;;9.52;;
69890;SDS011;57170;43.964;21.262;2022-08-19T01:21:37;13.77;;;10.00;;
69890;SDS011;57170;43.964;21.262;2022-08-19T01:24:05;16.48;;;8.52;;
69890;SDS011;57170;43.964;21.262;2022-08-19T01:26:37;13.20;;;9.10;;
69890;SDS011;57170;43.964;21.262;2022-08-19T01:29:04;13.57;;;8.80;;
69890;SDS011;57170;43.964;21.262;2022-08-19T01:31:33;10.95;;;8.90;;
69890;SDS011;57170;43.964;21.262;2022-08-19T01:34:01;12.20;;;8.93;;
69890;SDS011;57170;43.964;21.262;2022-08-19T01:38:56;10.68;;;8.73;;
69890;SDS011;57170;43.964;21.262;2022-08-19T01:41:23;11.82;;;8.60;;
69890;SDS011;57170;43.964;21.262;2022-08-19T01:43:50;12.30;;;9.55;;
69890;SDS011;57170;43.964;21.262;2022-08-19T01:46:16;11.57;;;8.73;;
69890;SDS011;57170;43.964;21.262;2022-08-19T01:48:43;16.60;;;10.20;;
69890;SDS011;57170;43.964;21.262;2022-08-19T01:51:09;11.13;;;8.90;;
69890;SDS011;57170;43.964;21.262;2022-08-19T01:53:36;9.50;;;8.13;;
69890;SDS011;57170;43.964;21.262;2022-08-19T01:56:02;11.30;;;9.05;;
69890;SDS011;57170;43.964;21.262;2022-08-19T01:58:30;12.82;;;8.95;;
69890;SDS011;57170;43.964;21.262;2022-08-19T02:00:57;11.70;;;8.73;;
69890;SDS011;57170;43.964;21.262;2022-08-19T02:03:23;10.93;;;8.65;;
69890;SDS011;57170;43.964;21.262;2022-08-19T02:05:53;10.30;;;8.70;;
69890;SDS011;57170;43.964;21.262;2022-08-19T02:08:20;12.68;;;9.55;;
69890;SDS011;57170;43.964;21.262;2022-08-19T02:10:46;11.35;;;9.55;;
69890;SDS011;57170;43.964;21.262;2022-08-19T02:13:13;13.00;;;9.73;;
69890;SDS011;57170;43.964;21.262;2022-08-19T02:15:39;9.73;;;8.70;;
69890;SDS011;57170;43.964;21.262;2022-08-19T02:18:05;10.43;;;9.23;;
69890;SDS011;57170;43.964;21.262;2022-08-19T02:20:32;11.63;;;8.63;;
69890;SDS011;57170;43.964;21.262;2022-08-19T02:22:58;9.95;;;8.77;;
69890;SDS011;57170;43.964;21.262;2022-08-19T02:25:26;13.27;;;9.80;;
69890;SDS011;57170;43.964;21.262;2022-08-19T02:27:52;11.65;;;9.32;;
69890;SDS011;57170;43.964;21.262;2022-08-19T02:30:19;12.52;;;9.60;;
69890;SDS011;57170;43.964;21.262;2022-08-19T02:32:45;12.13;;;9.38;;
69890;SDS011;57170;43.964;21.262;2022-08-19T02:35:12;12.82;;;9.85;;
69890;SDS011;57170;43.964;21.262;2022-08-19T02:37:40;13.30;;;9.20;;
69890;SDS011;57170;43.964;21.262;2022-08-19T02:40:24;15.20;;;9.10;;
69890;SDS011;57170;43.964;21.262;2022-08-19T02:42:51;12.75;;;9.18;;
69890;SDS011;57170;43.964;21.262;2022-08-19T02:45:17;13.88;;;9.20;;
69890;SDS011;57170;43.964;21.262;2022-08-19T02:47:43;11.75;;;8.73;;
69890;SDS011;57170;43.964;21.262;2022-08-19T02:50:09;12.00;;;9.25;;
69890;SDS011;57170;43.964;21.262;2022-08-19T02:52:36;13.20;;;9.50;;
69890;SDS011;57170;43.964;21.262;2022-08-19T02:55:02;12.25;;;9.55;;
69890;SDS011;57170;43.964;21.262;2022-08-19T02:57:29;14.23;;;8.35;;
69890;SDS011;57170;43.964;21.262;2022-08-19T02:59:56;11.00;;;8.95;;
69890;SDS011;57170;43.964;21.262;2022-08-19T03:02:23;12.38;;;9.32;;
69890;SDS011;57170;43.964;21.262;2022-08-19T03:04:49;11.60;;;8.63;;
69890;SDS011;57170;43.964;21.262;2022-08-19T03:07:16;11.88;;;9.80;;
69890;SDS011;57170;43.964;21.262;2022-08-19T03:09:43;14.93;;;10.38;;
69890;SDS011;57170;43.964;21.262;2022-08-19T03:12:09;10.88;;;9.75;;
69890;SDS011;57170;43.964;21.262;2022-08-19T03:14:36;12.85;;;9.52;;
69890;SDS011;57170;43.964;21.262;2022-08-19T03:17:02;13.05;;;9.27;;
69890;SDS011;57170;43.964;21.262;2022-08-19T03:19:29;12.63;;;9.25;;
69890;SDS011;57170;43.964;21.262;2022-08-19T03:21:56;10.43;;;9.30;;
69890;SDS011;57170;43.964;21.262;2022-08-19T03:24:22;10.98;;;9.75;;
69890;SDS011;57170;43.964;21.262;2022-08-19T03:26:52;11.93;;;10.63;;
69890;SDS011;57170;43.964;21.262;2022-08-19T03:29:23;14.73;;;10.00;;
69890;SDS011;57170;43.964;21.262;2022-08-19T03:31:50;12.98;;;10.25;;
69890;SDS011;57170;43.964;21.262;2022-08-19T03:34:27;14.32;;;9.98;;
69890;SDS011;57170;43.964;21.262;2022-08-19T03:36:54;12.90;;;10.88;;
69890;SDS011;57170;43.964;21.262;2022-08-19T03:39:21;10.80;;;9.68;;
69890;SDS011;57170;43.964;21.262;2022-08-19T03:41:47;17.55;;;10.57;;
69890;SDS011;57170;43.964;21.262;2022-08-19T03:44:19;12.05;;;10.15;;
69890;SDS011;57170;43.964;21.262;2022-08-19T03:46:51;15.35;;;10.68;;
69890;SDS011;57170;43.964;21.262;2022-08-19T03:49:17;16.80;;;10.35;;
69890;SDS011;57170;43.964;21.262;2022-08-19T03:51:44;9.80;;;8.60;;
69890;SDS011;57170;43.964;21.262;2022-08-19T03:54:12;13.43;;;9.27;;
69890;SDS011;57170;43.964;21.262;2022-08-19T03:56:39;13.65;;;10.60;;
69890;SDS011;57170;43.964;21.262;2022-08-19T03:59:08;12.57;;;9.35;;
69890;SDS011;57170;43.964;21.262;2022-08-19T04:01:34;12.02;;;9.60;;
69890;SDS011;57170;43.964;21.262;2022-08-19T04:04:00;11.52;;;10.13;;
69890;SDS011;57170;43.964;21.262;2022-08-19T04:06:31;13.48;;;10.23;;
69890;SDS011;57170;43.964;21.262;2022-08-19T04:08:58;11.35;;;9.27;;
69890;SDS011;57170;43.964;21.262;2022-08-19T04:11:28;12.70;;;9.48;;
69890;SDS011;57170;43.964;21.262;2022-08-19T04:13:55;14.10;;;9.30;;
69890;SDS011;57170;43.964;21.262;2022-08-19T04:16:23;19.15;;;9.50;;
69890;SDS011;57170;43.964;21.262;2022-08-19T04:18:49;11.45;;;10.25;;
69890;SDS011;57170;43.964;21.262;2022-08-19T04:21:17;16.92;;;11.25;;
69890;SDS011;57170;43.964;21.262;2022-08-19T04:23:43;12.13;;;9.80;;
69890;SDS011;57170;43.964;21.262;2022-08-19T04:26:23;12.10;;;10.13;;
69890;SDS011;57170;43.964;21.262;2022-08-19T04:28:49;11.02;;;9.18;;
69890;SDS011;57170;43.964;21.262;2022-08-19T04:31:27;10.85;;;8.82;;
69890;SDS011;57170;43.964;21.262;2022-08-19T04:33:54;10.52;;;9.43;;
69890;SDS011;57170;43.964;21.262;2022-08-19T04:36:23;11.38;;;10.23;;
69890;SDS011;57170;43.964;21.262;2022-08-19T04:38:52;12.32;;;8.98;;
69890;SDS011;57170;43.964;21.262;2022-08-19T04:41:19;9.80;;;8.63;;
69890;SDS011;57170;43.964;21.262;2022-08-19T04:44:04;9.40;;;8.38;;
69890;SDS011;57170;43.964;21.262;2022-08-19T04:46:30;9.20;;;8.27;;
69890;SDS011;57170;43.964;21.262;2022-08-19T04:49:00;11.43;;;9.30;;
69890;SDS011;57170;43.964;21.262;2022-08-19T04:51:26;20.08;;;9.20;;
69890;SDS011;57170;43.964;21.262;2022-08-19T04:53:52;11.02;;;9.15;;
69890;SDS011;57170;43.964;21.262;2022-08-19T04:56:19;12.13;;;8.80;;
69890;SDS011;57170;43.964;21.262;2022-08-19T04:58:47;11.80;;;8.70;;
69890;SDS011;57170;43.964;21.262;2022-08-19T05:01:18;14.77;;;8.85;;
69890;SDS011;57170;43.964;21.262;2022-08-19T05:03:45;13.05;;;8.18;;
69890;SDS011;57170;43.964;21.262;2022-08-19T05:06:12;12.98;;;8.55;;
69890;SDS011;57170;43.964;21.262;2022-08-19T05:08:39;10.38;;;8.27;;
69890;SDS011;57170;43.964;21.262;2022-08-19T05:14:07;12.27;;;8.25;;
69890;SDS011;57170;43.964;21.262;2022-08-19T05:16:33;10.05;;;8.10;;
69890;SDS011;57170;43.964;21.262;2022-08-19T05:18:59;9.70;;;7.43;;
69890;SDS011;57170;43.964;21.262;2022-08-19T05:21:44;8.68;;;6.72;;
69890;SDS011;57170;43.964;21.262;2022-08-19T05:24:29;9.10;;;8.20;;
69890;SDS011;57170;43.964;21.262;2022-08-19T05:26:55;10.80;;;7.50;;
69890;SDS011;57170;43.964;21.262;2022-08-19T05:29:23;11.10;;;7.88;;
69890;SDS011;57170;43.964;21.262;2022-08-19T05:31:50;13.05;;;10.45;;
69890;SDS011;57170;43.964;21.262;2022-08-19T05:34:17;18.00;;;12.27;;
69890;SDS011;57170;43.964;21.262;2022-08-19T05:36:44;15.95;;;12.35;;
69890;SDS011;57170;43.964;21.262;2022-08-19T05:39:13;16.80;;;11.13;;
69890;SDS011;57170;43.964;21.262;2022-08-19T05:41:43;15.52;;;10.63;;
69890;SDS011;57170;43.964;21.262;2022-08-19T05:44:09;12.27;;;10.27;;
69890;SDS011;57170;43.964;21.262;2022-08-19T05:46:36;14.40;;;9.25;;
69890;SDS011;57170;43.964;21.262;2022-08-19T05:49:03;12.95;;;10.48;;
69890;SDS011;57170;43.964;21.262;2022-08-19T05:51:31;12.77;;;9.52;;
69890;SDS011;57170;43.964;21.262;2022-08-19T05:53:59;11.80;;;9.63;;
69890;SDS011;57170;43.964;21.262;2022-08-19T05:56:25;14.13;;;10.88;;
69890;SDS011;57170;43.964;21.262;2022-08-19T05:58:51;10.75;;;9.60;;
69890;SDS011;57170;43.964;21.262;2022-08-19T06:01:19;12.55;;;9.73;;
69890;SDS011;57170;43.964;21.262;2022-08-19T06:03:46;12.95;;;10.07;;
69890;SDS011;57170;43.964;21.262;2022-08-19T06:06:15;11.73;;;9.98;;
69890;SDS011;57170;43.964;21.262;2022-08-19T06:08:42;13.55;;;10.38;;
69890;SDS011;57170;43.964;21.262;2022-08-19T06:11:18;11.90;;;10.55;;
69890;SDS011;57170;43.964;21.262;2022-08-19T06:13:45;15.32;;;10.80;;
69890;SDS011;57170;43.964;21.262;2022-08-19T06:16:14;16.08;;;10.30;;
69890;SDS011;57170;43.964;21.262;2022-08-19T06:18:47;14.75;;;11.02;;
69890;SDS011;57170;43.964;21.262;2022-08-19T06:21:14;14.38;;;10.25;;
69890;SDS011;57170;43.964;21.262;2022-08-19T06:23:40;12.25;;;9.77;;
69890;SDS011;57170;43.964;21.262;2022-08-19T06:26:07;13.23;;;10.63;;
69890;SDS011;57170;43.964;21.262;2022-08-19T06:28:36;11.88;;;9.90;;
69890;SDS011;57170;43.964;21.262;2022-08-19T06:31:07;12.00;;;10.63;;
69890;SDS011;57170;43.964;21.262;2022-08-19T06:33:34;14.25;;;10.40;;
69890;SDS011;57170;43.964;21.262;2022-08-19T06:36:00;16.75;;;11.10;;
69890;SDS011;57170;43.964;21.262;2022-08-19T06:38:26;13.52;;;10.82;;
69890;SDS011;57170;43.964;21.262;2022-08-19T06:40:59;11.50;;;9.82;;
69890;SDS011;57170;43.964;21.262;2022-08-19T06:43:25;13.55;;;10.38;;
69890;SDS011;57170;43.964;21.262;2022-08-19T06:45:52;20.02;;;9.57;;
69890;SDS011;57170;43.964;21.262;2022-08-19T06:48:18;10.52;;;9.43;;
69890;SDS011;57170;43.964;21.262;2022-08-19T06:50:44;13.95;;;10.30;;
69890;SDS011;57170;43.964;21.262;2022-08-19T06:53:10;12.18;;;11.02;;
69890;SDS011;57170;43.964;21.262;2022-08-19T06:55:36;13.32;;;10.10;;
69890;SDS011;57170;43.964;21.262;2022-08-19T06:58:03;11.88;;;9.82;;
69890;SDS011;57170;43.964;21.262;2022-08-19T07:00:29;10.07;;;9.07;;
69890;SDS011;57170;43.964;21.262;2022-08-19T07:02:55;13.80;;;9.45;;
69890;SDS011;57170;43.964;21.262;2022-08-19T07:05:22;9.90;;;8.98;;
69890;SDS011;57170;43.964;21.262;2022-08-19T07:07:48;13.20;;;9.43;;
69890;SDS011;57170;43.964;21.262;2022-08-19T07:10:14;9.98;;;8.98;;
69890;SDS011;57170;43.964;21.262;2022-08-19T07:12:40;10.25;;;9.07;;
69890;SDS011;57170;43.964;21.262;2022-08-19T07:15:07;12.35;;;10.75;;
69890;SDS011;57170;43.964;21.262;2022-08-19T07:17:35;13.45;;;10.25;;
69890;SDS011;57170;43.964;21.262;2022-08-19T07:20:04;11.13;;;10.13;;
69890;SDS011;57170;43.964;21.262;2022-08-19T07:22:31;10.38;;;9.30;;
69890;SDS011;57170;43.964;21.262;2022-08-19T07:24:58;10.55;;;9.05;;
69890;SDS011;57170;43.964;21.262;2022-08-19T07:27:25;11.20;;;10.10;;
69890;SDS011;57170;43.964;21.262;2022-08-19T07:29:52;11.85;;;9.95;;
69890;SDS011;57170;43.964;21.262;2022-08-19T07:32:18;11.52;;;9.05;;
69890;SDS011;57170;43.964;21.262;2022-08-19T07:34:44;12.60;;;10.73;;
69890;SDS011;57170;43.964;21.262;2022-08-19T07:37:10;10.50;;;9.40;;
69890;SDS011;57170;43.964;21.262;2022-08-19T07:39:37;11.60;;;10.25;;
69890;SDS011;57170;43.964;21.262;2022-08-19T07:42:06;11.18;;;9.90;;
69890;SDS011;57170;43.964;21.262;2022-08-19T07:44:32;11.15;;;10.07;;
69890;SDS011;57170;43.964;21.262;2022-08-19T07:46:59;11.65;;;10.32;;
69890;SDS011;57170;43.964;21.262;2022-08-19T07:49:25;13.20;;;10.20;;
69890;SDS011;57170;43.964;21.262;2022-08-19T07:51:58;12.27;;;10.88;;
69890;SDS011;57170;43.964;21.262;2022-08-19T07:54:26;10.18;;;8.90;;
69890;SDS011;57170;43.964;21.262;2022-08-19T07:56:53;10.98;;;9.50;;
69890;SDS011;57170;43.964;21.262;2022-08-19T07:59:21;11.18;;;9.60;;
69890;SDS011;57170;43.964;21.262;2022-08-19T08:01:48;11.77;;;10.35;;
69890;SDS011;57170;43.964;21.262;2022-08-19T08:04:15;10.60;;;9.20;;
69890;SDS011;57170;43.964;21.262;2022-08-19T08:07:00;10.45;;;9.55;;
69890;SDS011;57170;43.964;21.262;2022-08-19T08:09:45;10.73;;;9.25;;
69890;SDS011;57170;43.964;21.262;2022-08-19T08:12:13;9.65;;;8.65;;
69890;SDS011;57170;43.964;21.262;2022-08-19T08:14:43;10.65;;;9.55;;
69890;SDS011;57170;43.964;21.262;2022-08-19T08:17:11;11.52;;;10.13;;
69890;SDS011;57170;43.964;21.262;2022-08-19T08:19:38;9.80;;;8.82;;
69890;SDS011;57170;43.964;21.262;2022-08-19T08:22:06;9.75;;;8.85;;
69890;SDS011;57170;43.964;21.262;2022-08-19T08:24:32;10.20;;;9.15;;
69890;SDS011;57170;43.964;21.262;2022-08-19T08:27:01;9.70;;;8.70;;
69890;SDS011;57170;43.964;21.262;2022-08-19T08:29:29;9.55;;;8.65;;
69890;SDS011;57170;43.964;21.262;2022-08-19T08:31:56;9.82;;;8.93;;
69890;SDS011;57170;43.964;21.262;2022-08-19T08:34:22;10.82;;;8.88;;
69890;SDS011;57170;43.964;21.262;2022-08-19T08:36:48;9.77;;;8.95;;
69890;SDS011;57170;43.964;21.262;2022-08-19T08:39:17;9.43;;;8.55;;
69890;SDS011;57170;43.964;21.262;2022-08-19T08:41:54;8.80;;;8.10;;
69890;SDS011;57170;43.964;21.262;2022-08-19T08:47:04;9.98;;;9.02;;
69890;SDS011;57170;43.964;21.262;2022-08-19T08:49:46;9.60;;;8.70;;
69890;SDS011;57170;43.964;21.262;2022-08-19T08:52:15;9.98;;;9.18;;
69890;SDS011;57170;43.964;21.262;2022-08-19T08:54:45;8.90;;;8.07;;
69890;SDS011;57170;43.964;21.262;2022-08-19T08:57:14;8.98;;;8.05;;
69890;SDS011;57170;43.964;21.262;2022-08-19T08:59:41;9.00;;;8.10;;
69890;SDS011;57170;43.964;21.262;2022-08-19T09:02:09;9.13;;;8.18;;
69890;SDS011;57170;43.964;21.262;2022-08-19T09:04:35;8.65;;;7.95;;
69890;SDS011;57170;43.964;21.262;2022-08-19T09:09:40;8.68;;;7.85;;
69890;SDS011;57170;43.964;21.262;2022-08-19T09:12:20;8.05;;;7.35;;
69890;SDS011;57170;43.964;21.262;2022-08-19T09:14:49;10.45;;;8.63;;
69890;SDS011;57170;43.964;21.262;2022-08-19T09:17:17;7.72;;;6.95;;
69890;SDS011;57170;43.964;21.262;2022-08-19T09:19:51;7.40;;;6.70;;
69890;SDS011;57170;43.964;21.262;2022-08-19T09:22:18;8.85;;;7.75;;
69890;SDS011;57170;43.964;21.262;2022-08-19T09:24:47;7.40;;;6.70;;
69890;SDS011;57170;43.964;21.262;2022-08-19T09:27:13;7.22;;;6.55;;
69890;SDS011;57170;43.964;21.262;2022-08-19T09:29:39;10.65;;;6.53;;
69890;SDS011;57170;43.964;21.262;2022-08-19T09:32:06;7.82;;;6.90;;
69890;SDS011;57170;43.964;21.262;2022-08-19T09:34:32;8.27;;;7.15;;
69890;SDS011;57170;43.964;21.262;2022-08-19T09:36:58;8.35;;;6.60;;
69890;SDS011;57170;43.964;21.262;2022-08-19T09:39:25;13.02;;;9.18;;
69890;SDS011;57170;43.964;21.262;2022-08-19T09:41:51;7.93;;;7.15;;
69890;SDS011;57170;43.964;21.262;2022-08-19T09:44:18;8.65;;;7.47;;
69890;SDS011;57170;43.964;21.262;2022-08-19T09:46:45;11.23;;;7.35;;
69890;SDS011;57170;43.964;21.262;2022-08-19T09:49:16;7.07;;;6.30;;
69890;SDS011;57170;43.964;21.262;2022-08-19T09:51:42;7.70;;;6.20;;
69890;SDS011;57170;43.964;21.262;2022-08-19T09:54:08;8.35;;;7.28;;
69890;SDS011;57170;43.964;21.262;2022-08-19T09:56:35;8.65;;;6.82;;
69890;SDS011;57170;43.964;21.262;2022-08-19T09:59:02;7.93;;;6.35;;
69890;SDS011;57170;43.964;21.262;2022-08-19T10:01:31;6.88;;;6.18;;
69890;SDS011;57170;43.964;21.262;2022-08-19T10:03:58;11.50;;;6.75;;
69890;SDS011;57170;43.964;21.262;2022-08-19T10:06:25;7.88;;;6.25;;
69890;SDS011;57170;43.964;21.262;2022-08-19T10:08:54;6.60;;;5.88;;
69890;SDS011;57170;43.964;21.262;2022-08-19T10:11:21;7.45;;;5.70;;
69890;SDS011;57170;43.964;21.262;2022-08-19T10:13:47;7.90;;;5.85;;
69890;SDS011;57170;43.964;21.262;2022-08-19T10:16:14;8.27;;;6.13;;
69890;SDS011;57170;43.964;21.262;2022-08-19T10:18:42;7.72;;;5.70;;
69890;SDS011;57170;43.964;21.262;2022-08-19T10:23:36;6.90;;;6.28;;
69890;SDS011;57170;43.964;21.262;2022-08-19T10:26:03;6.82;;;5.80;;
69890;SDS011;57170;43.964;21.262;2022-08-19T10:28:31;8.38;;;5.45;;
69890;SDS011;57170;43.964;21.262;2022-08-19T10:30:57;18.73;;;6.38;;
69890;SDS011;57170;43.964;21.262;2022-08-19T10:33:24;11.52;;;6.10;;
69890;SDS011;57170;43.964;21.262;2022-08-19T10:35:58;8.20;;;6.38;;
69890;SDS011;57170;43.964;21.262;2022-08-19T10:38:24;8.82;;;6.68;;
69890;SDS011;57170;43.964;21.262;2022-08-19T10:40:50;6.63;;;5.78;;
69890;SDS011;57170;43.964;21.262;2022-08-19T10:43:18;7.68;;;6.88;;
69890;SDS011;57170;43.964;21.262;2022-08-19T10:45:48;10.32;;;5.80;;
69890;SDS011;57170;43.964;21.262;2022-08-19T10:48:14;7.22;;;6.07;;
69890;SDS011;57170;43.964;21.262;2022-08-19T10:50:40;7.55;;;5.90;;
69890;SDS011;57170;43.964;21.262;2022-08-19T10:53:25;10.15;;;6.15;;
69890;SDS011;57170;43.964;21.262;2022-08-19T10:55:51;12.68;;;5.82;;
69890;SDS011;57170;43.964;21.262;2022-08-19T10:58:35;7.03;;;6.15;;
69890;SDS011;57170;43.964;21.262;2022-08-19T11:01:01;8.30;;;5.63;;
69890;SDS011;57170;43.964;21.262;2022-08-19T11:03:28;9.05;;;5.93;;
69890;SDS011;57170;43.964;21.262;2022-08-19T11:05:59;10.48;;;7.20;;
69890;SDS011;57170;43.964;21.262;2022-08-19T11:08:26;8.23;;;6.38;;
69890;SDS011;57170;43.964;21.262;2022-08-19T11:10:53;8.57;;;5.80;;
69890;SDS011;57170;43.964;21.262;2022-08-19T11:13:26;6.10;;;5.50;;
69890;SDS011;57170;43.964;21.262;2022-08-19T11:15:56;9.93;;;6.43;;
69890;SDS011;57170;43.964;21.262;2022-08-19T11:18:23;6.88;;;5.43;;
69890;SDS011;57170;43.964;21.262;2022-08-19T11:20:49;6.07;;;5.38;;
69890;SDS011;57170;43.964;21.262;2022-08-19T11:23:15;6.72;;;6.03;;
69890;SDS011;57170;43.964;21.262;2022-08-19T11:25:41;7.75;;;5.95;;
69890;SDS011;57170;43.964;21.262;2022-08-19T11:28:07;6.43;;;5.63;;
69890;SDS011;57170;43.964;21.262;2022-08-19T11:30:33;7.28;;;5.72;;
69890;SDS011;57170;43.964;21.262;2022-08-19T11:32:59;9.88;;;6.13;;
69890;SDS011;57170;43.964;21.262;2022-08-19T11:35:26;10.15;;;6.25;;
69890;SDS011;57170;43.964;21.262;2022-08-19T11:37:53;10.52;;;6.10;;
69890;SDS011;57170;43.964;21.262;2022-08-19T11:40:19;11.13;;;6.43;;
69890;SDS011;57170;43.964;21.262;2022-08-19T11:42:45;11.77;;;6.00;;
69890;SDS011;57170;43.964;21.262;2022-08-19T11:45:21;8.07;;;6.07;;
69890;SDS011;57170;43.964;21.262;2022-08-19T11:47:47;8.63;;;5.90;;
69890;SDS011;57170;43.964;21.262;2022-08-19T11:50:14;6.78;;;5.93;;
69890;SDS011;57170;43.964;21.262;2022-08-19T11:52:40;8.52;;;5.78;;
69890;SDS011;57170;43.964;21.262;2022-08-19T11:55:06;6.88;;;5.47;;
69890;SDS011;57170;43.964;21.262;2022-08-19T11:57:33;6.55;;;5.22;;
69890;SDS011;57170;43.964;21.262;2022-08-19T11:59:59;11.55;;;6.13;;
69890;SDS011;57170;43.964;21.262;2022-08-19T12:02:26;10.30;;;5.97;;
69890;SDS011;57170;43.964;21.262;2022-08-19T12:04:52;9.52;;;5.93;;
69890;SDS011;57170;43.964;21.262;2022-08-19T12:07:18;8.82;;;5.28;;
69890;SDS011;57170;43.964;21.262;2022-08-19T12:09:45;9.48;;;5.85;;
69890;SDS011;57170;43.964;21.262;2022-08-19T12:12:11;6.60;;;5.20;;
69890;SDS011;57170;43.964;21.262;2022-08-19T12:14:37;5.47;;;4.93;;
69890;SDS011;57170;43.964;21.262;2022-08-19T12:17:04;13.15;;;5.53;;
69890;SDS011;57170;43.964;21.262;2022-08-19T12:19:32;8.20;;;5.47;;
69890;SDS011;57170;43.964;21.262;2022-08-19T12:21:59;10.27;;;5.32;;
69890;SDS011;57170;43.964;21.262;2022-08-19T12:24:29;7.47;;;5.45;;
69890;SDS011;57170;43.964;21.262;2022-08-19T12:26:56;9.63;;;4.85;;
69890;SDS011;57170;43.964;21.262;2022-08-19T12:29:23;10.90;;;5.38;;
69890;SDS011;57170;43.964;21.262;2022-08-19T12:31:53;9.48;;;5.57;;
69890;SDS011;57170;43.964;21.262;2022-08-19T12:34:25;9.88;;;6.60;;
69890;SDS011;57170;43.964;21.262;2022-08-19T12:36:54;6.82;;;5.28;;
69890;SDS011;57170;43.964;21.262;2022-08-19T12:39:20;9.57;;;6.22;;
69890;SDS011;57170;43.964;21.262;2022-08-19T12:41:47;10.75;;;5.82;;
69890;SDS011;57170;43.964;21.262;2022-08-19T12:44:14;13.60;;;5.78;;
69890;SDS011;57170;43.964;21.262;2022-08-19T12:46:40;11.20;;;5.57;;
69890;SDS011;57170;43.964;21.262;2022-08-19T12:49:06;8.35;;;5.40;;
69890;SDS011;57170;43.964;21.262;2022-08-19T12:51:32;9.90;;;5.07;;
69890;SDS011;57170;43.964;21.262;2022-08-19T12:53:58;7.22;;;5.10;;
69890;SDS011;57170;43.964;21.262;2022-08-19T12:56:24;11.63;;;5.25;;
69890;SDS011;57170;43.964;21.262;2022-08-19T12:58:50;7.63;;;5.75;;
69890;SDS011;57170;43.964;21.262;2022-08-19T13:01:17;8.95;;;5.75;;
69890;SDS011;57170;43.964;21.262;2022-08-19T13:03:46;8.77;;;4.65;;
69890;SDS011;57170;43.964;21.262;2022-08-19T13:06:12;7.55;;;5.35;;
69890;SDS011;57170;43.964;21.262;2022-08-19T13:08:39;12.52;;;6.18;;
69890;SDS011;57170;43.964;21.262;2022-08-19T13:11:07;7.38;;;5.18;;
69890;SDS011;57170;43.964;21.262;2022-08-19T13:13:33;10.35;;;6.47;;
69890;SDS011;57170;43.964;21.262;2022-08-19T13:15:59;5.95;;;4.90;;
69890;SDS011;57170;43.964;21.262;2022-08-19T13:18:29;8.70;;;4.75;;
69890;SDS011;57170;43.964;21.262;2022-08-19T13:20:55;8.00;;;4.88;;
69890;SDS011;57170;43.964;21.262;2022-08-19T13:23:21;9.43;;;5.05;;
69890;SDS011;57170;43.964;21.262;2022-08-19T13:25:55;8.60;;;4.93;;
69890;SDS011;57170;43.964;21.262;2022-08-19T13:28:21;8.75;;;5.80;;
69890;SDS011;57170;43.964;21.262;2022-08-19T13:30:47;10.65;;;5.40;;
69890;SDS011;57170;43.964;21.262;2022-08-19T13:33:32;6.20;;;4.90;;
69890;SDS011;57170;43.964;21.262;2022-08-19T13:35:59;8.88;;;5.43;;
69890;SDS011;57170;43.964;21.262;2022-08-19T13:38:26;7.28;;;4.75;;
69890;SDS011;57170;43.964;21.262;2022-08-19T13:40:53;12.90;;;5.65;;
69890;SDS011;57170;43.964;21.262;2022-08-19T13:43:21;8.07;;;5.22;;
69890;SDS011;57170;43.964;21.262;2022-08-19T13:45:48;7.63;;;5.20;;
69890;SDS011;57170;43.964;21.262;2022-08-19T13:48:14;8.00;;;4.93;;
69890;SDS011;57170;43.964;21.262;2022-08-19T13:50:42;7.75;;;4.93;;
69890;SDS011;57170;43.964;21.262;2022-08-19T13:53:10;7.40;;;4.90;;
69890;SDS011;57170;43.964;21.262;2022-08-19T13:55:40;11.05;;;5.80;;
69890;SDS011;57170;43.964;21.262;2022-08-19T13:58:07;9.25;;;5.47;;
69890;SDS011;57170;43.964;21.262;2022-08-19T14:00:35;8.18;;;4.90;;
69890;SDS011;57170;43.964;21.262;2022-08-19T14:03:01;8.30;;;5.32;;
69890;SDS011;57170;43.964;21.262;2022-08-19T14:05:28;8.10;;;4.93;;
69890;SDS011;57170;43.964;21.262;2022-08-19T14:07:55;7.03;;;4.53;;
69890;SDS011;57170;43.964;21.262;2022-08-19T14:10:22;7.10;;;5.18;;
69890;SDS011;57170;43.964;21.262;2022-08-19T14:12:48;9.43;;;5.10;;
69890;SDS011;57170;43.964;21.262;2022-08-19T14:15:15;9.48;;;5.05;;
69890;SDS011;57170;43.964;21.262;2022-08-19T14:17:42;6.90;;;4.75;;
69890;SDS011;57170;43.964;21.262;2022-08-19T14:20:10;7.32;;;5.28;;
69890;SDS011;57170;43.964;21.262;2022-08-19T14:22:38;9.57;;;5.40;;
69890;SDS011;57170;43.964;21.262;2022-08-19T14:25:05;13.10;;;5.38;;
69890;SDS011;57170;43.964;21.262;2022-08-19T14:27:35;14.07;;;5.97;;
69890;SDS011;57170;43.964;21.262;2022-08-19T14:30:02;8.45;;;4.57;;
69890;SDS011;57170;43.964;21.262;2022-08-19T14:32:29;10.85;;;5.38;;
69890;SDS011;57170;43.964;21.262;2022-08-19T14:34:55;7.03;;;4.90;;
69890;SDS011;57170;43.964;21.262;2022-08-19T14:37:21;11.30;;;5.50;;
69890;SDS011;57170;43.964;21.262;2022-08-19T14:39:47;7.60;;;5.13;;